Terminal Aerodrome Forecast
Issued by NWS Sterling, VA

Home | Current Version | Previous Version | Text Only | Print | Product List | Glossary On
Versions: 1 2 3 4 5 6 7 8 9 10 11 12 13 14 15 16 17 18 19 20 21 22 23 24 25 26 27 28
000
FTUS41 KLWX 272053 AAA
TAFIAD
TAF AMD
KIAD 272053Z 2721/2824 36008KT P6SM SCT050 BKN070 OVC120
     FM280800 33010KT P6SM BKN090
     FM281500 32014KT P6SM SCT060
     FM281600 32014KT P6SM BKN060
     FM282000 31013KT P6SM SCT050=

USA.gov is the U.S. government's official web portal to all federal, state and local government web resources and services.